Brilliance Of The Seas — C6SJ5 — position and weather

sailwx.info

Track history (hours):
 
Tides and Currents Weather Stations Pressure Air Temp Water Temp Dewpoint Dewpoint Depression Visibility Wind Speed Wind Dir Waves Ship Positions

Brilliance Of The Seas

Operator: Royal Caribbean Cruises Ltd

Last reported at 2014-Oct-21 21:15 UTC. Time now 2014-Oct-23 16:38 UTC.
Position N 44°27' W 063°29'.

Type: Ship. MMSI: 311361000.

Date/timePositionNaut miles runAvg speedWind from/ knotsBaromVisibWave heightAir tempDewpointWater temp
2014-Oct-21 21:15N 44°27' W 063°29'910.2
2014-Oct-21 20:24N 44°35' W 063°32'3 3.4
2014-Oct-21 19:31N 44°38' W 063°34'0 0.0
2014-Oct-21 18:22N 44°38' W 063°34'0 0.0
2014-Oct-21 17:25N 44°38' W 063°34'0 0.0
2014-Oct-21 16:25N 44°38' W 063°34'0 0.0
2014-Oct-21 15:25N 44°38' W 063°34'0 0.0
2014-Oct-21 14:28N 44°38' W 063°34'0 0.0
2014-Oct-21 13:28N 44°38' W 063°34'0 0.0
2014-Oct-21 12:25N 44°38' W 063°34'0 0.0
2014-Oct-21 11:31N 44°38' W 063°34'0 0.0
2014-Oct-21 10:31N 44°38' W 063°34'2 1.7
2014-Oct-21 09:33N 44°37' W 063°33'9 9.5
2014-Oct-21 08:33N 44°28' W 063°28'34410.0
2014-Oct-19 22:13N 42°23' W 070°50'343 7.2
2014-Oct-17 22:15N 44°30' W 063°31'811.4
2014-Oct-17 21:33N 44°38' W 063°33'1 0.8
2014-Oct-17 20:32N 44°38' W 063°34'0 0.0
2014-Oct-17 19:20N 44°38' W 063°34'0 0.0
2014-Oct-17 18:32N 44°38' W 063°34'0 0.0
2014-Oct-17 17:32N 44°38' W 063°34'0 0.0
2014-Oct-17 16:23N 44°38' W 063°34'0 0.0
2014-Oct-17 15:26N 44°38' W 063°34'0 0.0
2014-Oct-17 14:26N 44°38' W 063°34'0 0.0
2014-Oct-17 13:23N 44°38' W 063°34'0 0.0
2014-Oct-17 12:29N 44°38' W 063°34'0 0.0
2014-Oct-17 11:33N 44°38' W 063°34'8 8.1
2014-Oct-17 10:33N 44°31' W 063°30'  
2014-Oct-12 23:17N 42°30' W 070°40'7 8.5
2014-Oct-12 22:31N 42°25' W 070°46'11 0.9
2014-Oct-12 10:30N 42°20' W 070°60'1010.6
2014-Oct-12 09:33N 42°24' W 070°48'7 7.2
2014-Oct-12 08:33N 42°29' W 070°40'8 7.7
2014-Oct-12 07:28N 42°34' W 070°31'9 7.8
2014-Oct-12 06:21N 42°39' W 070°22'  
Track history (hours):
 
Tides and Currents Weather Stations Pressure Air Temp Water Temp Dewpoint Dewpoint Depression Visibility Wind Speed Wind Dir Waves Ship Positions

Brilliance Of The Seas

Operator: Royal Caribbean Cruises Ltd

Last reported at 2014-Oct-21 21:15 UTC. Time now 2014-Oct-23 16:38 UTC.
Position N 44°27' W 063°29'.

Type: Ship. MMSI: 311361000.

Date/timePositionNaut miles runAvg speedWind from/ knotsBaromVisibWave heightAir tempDewpointWater temp
2014-Oct-21 21:15N 44°27' W 063°29'910.2
2014-Oct-21 20:24N 44°35' W 063°32'3 3.4
2014-Oct-21 19:31N 44°38' W 063°34'0 0.0
2014-Oct-21 18:22N 44°38' W 063°34'0 0.0
2014-Oct-21 17:25N 44°38' W 063°34'0 0.0
2014-Oct-21 16:25N 44°38' W 063°34'0 0.0
2014-Oct-21 15:25N 44°38' W 063°34'0 0.0
2014-Oct-21 14:28N 44°38' W 063°34'0 0.0
2014-Oct-21 13:28N 44°38' W 063°34'0 0.0
2014-Oct-21 12:25N 44°38' W 063°34'0 0.0
2014-Oct-21 11:31N 44°38' W 063°34'0 0.0
2014-Oct-21 10:31N 44°38' W 063°34'2 1.7
2014-Oct-21 09:33N 44°37' W 063°33'9 9.5
2014-Oct-21 08:33N 44°28' W 063°28'34410.0
2014-Oct-19 22:13N 42°23' W 070°50'343 7.2
2014-Oct-17 22:15N 44°30' W 063°31'811.4
2014-Oct-17 21:33N 44°38' W 063°33'1 0.8
2014-Oct-17 20:32N 44°38' W 063°34'0 0.0
2014-Oct-17 19:20N 44°38' W 063°34'0 0.0
2014-Oct-17 18:32N 44°38' W 063°34'0 0.0
2014-Oct-17 17:32N 44°38' W 063°34'0 0.0
2014-Oct-17 16:23N 44°38' W 063°34'0 0.0
2014-Oct-17 15:26N 44°38' W 063°34'0 0.0
2014-Oct-17 14:26N 44°38' W 063°34'0 0.0
2014-Oct-17 13:23N 44°38' W 063°34'0 0.0
2014-Oct-17 12:29N 44°38' W 063°34'0 0.0
2014-Oct-17 11:33N 44°38' W 063°34'8 8.1
2014-Oct-17 10:33N 44°31' W 063°30'  
2014-Oct-12 23:17N 42°30' W 070°40'7 8.5
2014-Oct-12 22:31N 42°25' W 070°46'11 0.9
2014-Oct-12 10:30N 42°20' W 070°60'1010.6
2014-Oct-12 09:33N 42°24' W 070°48'7 7.2
2014-Oct-12 08:33N 42°29' W 070°40'8 7.7
2014-Oct-12 07:28N 42°34' W 070°31'9 7.8
2014-Oct-12 06:21N 42°39' W 070°22'  

Dump ship's entire track history